sensor_id;sensor_type;location;lat;lon;timestamp;temperature;humidity
17671;DHT22;8954;48.694;8.940;2023-02-01T08:13:20;4.50;99.90
17671;DHT22;8954;48.694;8.940;2023-02-01T08:15:45;4.60;99.90
17671;DHT22;8954;48.694;8.940;2023-02-01T08:18:11;4.60;99.90
17671;DHT22;8954;48.694;8.940;2023-02-01T08:20:36;4.60;99.90
17671;DHT22;8954;48.694;8.940;2023-02-01T08:23:07;4.70;99.90
17671;DHT22;8954;48.694;8.940;2023-02-01T08:25:34;4.90;99.90
17671;DHT22;8954;48.694;8.940;2023-02-01T08:28:00;5.00;99.90
17671;DHT22;8954;48.694;8.940;2023-02-01T08:30:25;5.10;99.90
17671;DHT22;8954;48.694;8.940;2023-02-01T08:32:52;5.10;99.90
17671;DHT22;8954;48.694;8.940;2023-02-01T08:35:18;5.00;99.90
17671;DHT22;8954;48.694;8.940;2023-02-01T08:37:43;5.10;99.90
17671;DHT22;8954;48.694;8.940;2023-02-01T08:40:09;5.20;99.90
17671;DHT22;8954;48.694;8.940;2023-02-01T08:42:35;5.30;99.90
17671;DHT22;8954;48.694;8.940;2023-02-01T08:45:17;5.30;99.90
17671;DHT22;8954;48.694;8.940;2023-02-01T08:47:44;5.40;99.90
17671;DHT22;8954;48.694;8.940;2023-02-01T08:50:10;5.20;99.90
17671;DHT22;8954;48.694;8.940;2023-02-01T08:52:35;5.20;99.90
17671;DHT22;8954;48.694;8.940;2023-02-01T08:55:01;5.30;99.90
17671;DHT22;8954;48.694;8.940;2023-02-01T08:57:27;5.30;99.90
17671;DHT22;8954;48.694;8.940;2023-02-01T08:59:52;5.30;99.90
17671;DHT22;8954;48.694;8.940;2023-02-01T09:02:18;5.30;99.90
17671;DHT22;8954;48.694;8.940;2023-02-01T09:04:44;5.40;99.90
17671;DHT22;8954;48.694;8.940;2023-02-01T09:07:10;5.30;99.90
17671;DHT22;8954;48.694;8.940;2023-02-01T09:09:36;5.20;99.90
17671;DHT22;8954;48.694;8.940;2023-02-01T09:12:03;5.30;99.90
17671;DHT22;8954;48.694;8.940;2023-02-01T09:14:29;5.40;99.90
17671;DHT22;8954;48.694;8.940;2023-02-01T09:16:54;5.40;99.90
17671;DHT22;8954;48.694;8.940;2023-02-01T09:19:20;5.30;99.90
17671;DHT22;8954;48.694;8.940;2023-02-01T09:21:46;5.20;99.90
17671;DHT22;8954;48.694;8.940;2023-02-01T09:24:12;5.10;99.90
17671;DHT22;8954;48.694;8.940;2023-02-01T09:26:37;5.10;99.90
17671;DHT22;8954;48.694;8.940;2023-02-01T09:29:03;5.20;99.90
17671;DHT22;8954;48.694;8.940;2023-02-01T09:31:31;5.20;99.90
17671;DHT22;8954;48.694;8.940;2023-02-01T09:33:57;5.30;99.90
17671;DHT22;8954;48.694;8.940;2023-02-01T09:36:23;5.40;99.90
17671;DHT22;8954;48.694;8.940;2023-02-01T09:38:49;5.40;99.90
17671;DHT22;8954;48.694;8.940;2023-02-01T09:41:36;5.50;99.90
17671;DHT22;8954;48.694;8.940;2023-02-01T09:46:55;5.90;99.90
17671;DHT22;8954;48.694;8.940;2023-02-01T09:49:28;6.20;99.90
17671;DHT22;8954;48.694;8.940;2023-02-01T09:51:55;6.00;99.90
17671;DHT22;8954;48.694;8.940;2023-02-01T09:54:38;5.90;99.90
17671;DHT22;8954;48.694;8.940;2023-02-01T09:57:24;5.90;99.90
17671;DHT22;8954;48.694;8.940;2023-02-01T10:00:04;6.00;99.90
17671;DHT22;8954;48.694;8.940;2023-02-01T10:02:39;6.20;99.90
17671;DHT22;8954;48.694;8.940;2023-02-01T10:05:11;6.40;99.90
17671;DHT22;8954;48.694;8.940;2023-02-01T10:07:46;6.70;99.90
17671;DHT22;8954;48.694;8.940;2023-02-01T10:10:31;7.40;99.90
17671;DHT22;8954;48.694;8.940;2023-02-01T10:13:26;8.10;99.90
17671;DHT22;8954;48.694;8.940;2023-02-01T10:21:53;8.00;99.90
17671;DHT22;8954;48.694;8.940;2023-02-01T10:24:39;7.80;99.90
17671;DHT22;8954;48.694;8.940;2023-02-01T10:27:21;7.50;99.90
17671;DHT22;8954;48.694;8.940;2023-02-01T10:29:54;7.10;99.90
17671;DHT22;8954;48.694;8.940;2023-02-01T10:32:24;7.10;99.90
17671;DHT22;8954;48.694;8.940;2023-02-01T10:34:58;7.00;99.90
17671;DHT22;8954;48.694;8.940;2023-02-01T10:37:34;6.90;99.90
17671;DHT22;8954;48.694;8.940;2023-02-01T10:42:39;6.70;99.90
17671;DHT22;8954;48.694;8.940;2023-02-01T10:45:05;6.70;99.90
17671;DHT22;8954;48.694;8.940;2023-02-01T10:47:31;6.70;99.90
17671;DHT22;8954;48.694;8.940;2023-02-01T10:50:15;6.70;99.90
17671;DHT22;8954;48.694;8.940;2023-02-01T10:53:04;6.90;99.90
17671;DHT22;8954;48.694;8.940;2023-02-01T10:55:36;6.90;99.90
17671;DHT22;8954;48.694;8.940;2023-02-01T10:58:05;6.80;99.90
17671;DHT22;8954;48.694;8.940;2023-02-01T11:00:46;6.80;99.90
17671;DHT22;8954;48.694;8.940;2023-02-01T11:03:40;6.80;99.90
17671;DHT22;8954;48.694;8.940;2023-02-01T11:08:52;6.90;99.90
17671;DHT22;8954;48.694;8.940;2023-02-01T11:11:18;6.70;99.90
17671;DHT22;8954;48.694;8.940;2023-02-01T11:13:44;6.80;99.90
17671;DHT22;8954;48.694;8.940;2023-02-01T11:16:14;6.60;99.90
17671;DHT22;8954;48.694;8.940;2023-02-01T11:18:42;6.60;99.90
17671;DHT22;8954;48.694;8.940;2023-02-01T11:21:09;6.60;99.90
17671;DHT22;8954;48.694;8.940;2023-02-01T11:23:41;6.70;99.90
17671;DHT22;8954;48.694;8.940;2023-02-01T11:26:14;6.70;99.90
17671;DHT22;8954;48.694;8.940;2023-02-01T11:28:51;6.90;99.90
17671;DHT22;8954;48.694;8.940;2023-02-01T11:31:17;6.90;99.90
17671;DHT22;8954;48.694;8.940;2023-02-01T11:33:49;7.10;99.90
17671;DHT22;8954;48.694;8.940;2023-02-01T11:36:18;7.10;99.90
17671;DHT22;8954;48.694;8.940;2023-02-01T11:39:37;6.90;99.90
17671;DHT22;8954;48.694;8.940;2023-02-01T11:42:11;6.80;99.90
17671;DHT22;8954;48.694;8.940;2023-02-01T11:44:39;6.90;99.90
17671;DHT22;8954;48.694;8.940;2023-02-01T11:47:27;6.70;99.90
17671;DHT22;8954;48.694;8.940;2023-02-01T11:49:55;6.80;99.90
17671;DHT22;8954;48.694;8.940;2023-02-01T11:57:50;6.60;99.90
17671;DHT22;8954;48.694;8.940;2023-02-01T12:00:31;6.60;99.90
17671;DHT22;8954;48.694;8.940;2023-02-01T12:06:36;6.70;99.90
17671;DHT22;8954;48.694;8.940;2023-02-01T12:17:16;6.30;99.90
17671;DHT22;8954;48.694;8.940;2023-02-01T12:25:38;6.40;99.90
17671;DHT22;8954;48.694;8.940;2023-02-01T12:31:14;6.40;99.90
17671;DHT22;8954;48.694;8.940;2023-02-01T12:36:50;6.50;99.90
17671;DHT22;8954;48.694;8.940;2023-02-01T12:39:46;6.50;99.90
17671;DHT22;8954;48.694;8.940;2023-02-01T12:42:32;6.50;99.90
17671;DHT22;8954;48.694;8.940;2023-02-01T12:47:56;6.40;99.90
17671;DHT22;8954;48.694;8.940;2023-02-01T12:50:49;6.50;99.90
17671;DHT22;8954;48.694;8.940;2023-02-01T12:53:27;6.60;99.90
17671;DHT22;8954;48.694;8.940;2023-02-01T12:56:02;6.70;99.90
17671;DHT22;8954;48.694;8.940;2023-02-01T12:58:44;6.70;99.90
17671;DHT22;8954;48.694;8.940;2023-02-01T13:01:49;6.70;99.90
17671;DHT22;8954;48.694;8.940;2023-02-01T13:04:26;6.60;99.90
17671;DHT22;8954;48.694;8.940;2023-02-01T13:11:59;6.50;99.90
17671;DHT22;8954;48.694;8.940;2023-02-01T13:14:32;6.40;99.90
17671;DHT22;8954;48.694;8.940;2023-02-01T13:17:04;6.30;99.90
17671;DHT22;8954;48.694;8.940;2023-02-01T13:19:44;6.20;99.90
17671;DHT22;8954;48.694;8.940;2023-02-01T13:22:37;6.20;99.90
17671;DHT22;8954;48.694;8.940;2023-02-01T13:27:59;6.40;99.90
17671;DHT22;8954;48.694;8.940;2023-02-01T13:30:45;6.30;99.90
17671;DHT22;8954;48.694;8.940;2023-02-01T13:41:35;6.20;99.90
17671;DHT22;8954;48.694;8.940;2023-02-01T13:44:14;6.00;99.90
17671;DHT22;8954;48.694;8.940;2023-02-01T13:46:46;6.00;99.90
17671;DHT22;8954;48.694;8.940;2023-02-01T13:49:25;5.90;99.90
17671;DHT22;8954;48.694;8.940;2023-02-01T13:51:56;6.10;99.90
17671;DHT22;8954;48.694;8.940;2023-02-01T13:54:32;6.20;99.90
17671;DHT22;8954;48.694;8.940;2023-02-01T13:57:00;6.20;99.90
17671;DHT22;8954;48.694;8.940;2023-02-01T14:05:04;5.90;99.90
17671;DHT22;8954;48.694;8.940;2023-02-01T14:07:33;6.00;99.90
17671;DHT22;8954;48.694;8.940;2023-02-01T14:10:31;6.00;99.90
17671;DHT22;8954;48.694;8.940;2023-02-01T14:12:47;6.10;99.90
17671;DHT22;8954;48.694;8.940;2023-02-01T14:17:44;6.10;99.90
17671;DHT22;8954;48.694;8.940;2023-02-01T14:20:42;6.10;99.90
17671;DHT22;8954;48.694;8.940;2023-02-01T14:23:21;6.20;99.90
17671;DHT22;8954;48.694;8.940;2023-02-01T14:26:03;6.00;99.90
17671;DHT22;8954;48.694;8.940;2023-02-01T14:28:29;5.90;99.90
17671;DHT22;8954;48.694;8.940;2023-02-01T14:30:57;5.80;99.90
17671;DHT22;8954;48.694;8.940;2023-02-01T14:33:25;5.80;99.90
17671;DHT22;8954;48.694;8.940;2023-02-01T14:36:03;5.80;99.90
17671;DHT22;8954;48.694;8.940;2023-02-01T14:38:31;5.80;99.90
17671;DHT22;8954;48.694;8.940;2023-02-01T14:49:32;5.80;99.90
17671;DHT22;8954;48.694;8.940;2023-02-01T14:51:59;5.80;99.90
17671;DHT22;8954;48.694;8.940;2023-02-01T14:54:27;5.70;99.90
17671;DHT22;8954;48.694;8.940;2023-02-01T14:56:54;5.70;99.90
17671;DHT22;8954;48.694;8.940;2023-02-01T14:59:22;5.80;99.90
17671;DHT22;8954;48.694;8.940;2023-02-01T15:01:53;5.70;99.90
17671;DHT22;8954;48.694;8.940;2023-02-01T15:04:19;5.80;99.90
17671;DHT22;8954;48.694;8.940;2023-02-01T15:09:36;5.80;99.90
17671;DHT22;8954;48.694;8.940;2023-02-01T15:12:16;5.60;99.90
17671;DHT22;8954;48.694;8.940;2023-02-01T15:15:12;5.70;99.90
17671;DHT22;8954;48.694;8.940;2023-02-01T15:17:39;5.60;99.90
17671;DHT22;8954;48.694;8.940;2023-02-01T15:20:12;5.60;99.90
17671;DHT22;8954;48.694;8.940;2023-02-01T15:22:38;5.70;99.90
17671;DHT22;8954;48.694;8.940;2023-02-01T15:25:04;5.80;99.90
17671;DHT22;8954;48.694;8.940;2023-02-01T15:27:31;5.70;99.90
17671;DHT22;8954;48.694;8.940;2023-02-01T15:30:08;5.80;99.90
17671;DHT22;8954;48.694;8.940;2023-02-01T15:32:37;5.90;99.90
17671;DHT22;8954;48.694;8.940;2023-02-01T15:35:04;5.90;99.90
17671;DHT22;8954;48.694;8.940;2023-02-01T15:37:31;5.90;99.90
17671;DHT22;8954;48.694;8.940;2023-02-01T15:42:57;5.80;99.90
17671;DHT22;8954;48.694;8.940;2023-02-01T15:45:26;5.70;99.90
17671;DHT22;8954;48.694;8.940;2023-02-01T15:47:54;5.60;99.90
17671;DHT22;8954;48.694;8.940;2023-02-01T15:50:21;5.60;99.90
17671;DHT22;8954;48.694;8.940;2023-02-01T15:52:53;5.50;99.90
17671;DHT22;8954;48.694;8.940;2023-02-01T15:55:36;5.40;99.90
17671;DHT22;8954;48.694;8.940;2023-02-01T15:58:28;5.40;99.90
17671;DHT22;8954;48.694;8.940;2023-02-01T16:01:03;5.40;99.90
17671;DHT22;8954;48.694;8.940;2023-02-01T16:03:40;5.40;99.90
17671;DHT22;8954;48.694;8.940;2023-02-01T16:06:29;5.30;99.90
17671;DHT22;8954;48.694;8.940;2023-02-01T16:09:01;5.20;99.90
17671;DHT22;8954;48.694;8.940;2023-02-01T16:11:31;5.40;99.90
17671;DHT22;8954;48.694;8.940;2023-02-01T16:13:59;5.30;99.90
17671;DHT22;8954;48.694;8.940;2023-02-01T16:16:26;5.40;99.90
17671;DHT22;8954;48.694;8.940;2023-02-01T16:18:52;5.40;99.90
17671;DHT22;8954;48.694;8.940;2023-02-01T16:21:18;5.40;99.90
17671;DHT22;8954;48.694;8.940;2023-02-01T16:23:43;5.30;99.90
17671;DHT22;8954;48.694;8.940;2023-02-01T16:26:09;5.20;99.90
17671;DHT22;8954;48.694;8.940;2023-02-01T16:28:35;5.20;99.90
17671;DHT22;8954;48.694;8.940;2023-02-01T16:31:01;5.10;99.90
17671;DHT22;8954;48.694;8.940;2023-02-01T16:33:27;5.20;99.90
17671;DHT22;8954;48.694;8.940;2023-02-01T16:35:56;5.30;99.90
17671;DHT22;8954;48.694;8.940;2023-02-01T16:38:25;5.30;99.90
17671;DHT22;8954;48.694;8.940;2023-02-01T16:40:51;5.30;99.90
17671;DHT22;8954;48.694;8.940;2023-02-01T16:43:22;5.30;99.90
17671;DHT22;8954;48.694;8.940;2023-02-01T16:45:49;5.30;99.90
17671;DHT22;8954;48.694;8.940;2023-02-01T16:48:33;5.30;99.90
17671;DHT22;8954;48.694;8.940;2023-02-01T16:51:02;5.30;99.90
17671;DHT22;8954;48.694;8.940;2023-02-01T16:53:30;5.40;99.90
17671;DHT22;8954;48.694;8.940;2023-02-01T16:55:56;5.50;99.90
17671;DHT22;8954;48.694;8.940;2023-02-01T16:58:25;5.20;99.90
17671;DHT22;8954;48.694;8.940;2023-02-01T17:00:52;5.20;99.90
17671;DHT22;8954;48.694;8.940;2023-02-01T17:03:18;5.20;99.90
17671;DHT22;8954;48.694;8.940;2023-02-01T17:05:47;5.20;99.90
17671;DHT22;8954;48.694;8.940;2023-02-01T17:08:17;5.20;99.90
17671;DHT22;8954;48.694;8.940;2023-02-01T17:10:44;5.20;99.90
17671;DHT22;8954;48.694;8.940;2023-02-01T17:13:14;5.10;99.90
17671;DHT22;8954;48.694;8.940;2023-02-01T17:15:51;5.10;99.90
17671;DHT22;8954;48.694;8.940;2023-02-01T17:18:18;5.20;99.90
17671;DHT22;8954;48.694;8.940;2023-02-01T17:20:44;5.20;99.90
17671;DHT22;8954;48.694;8.940;2023-02-01T17:23:12;5.20;99.90
17671;DHT22;8954;48.694;8.940;2023-02-01T17:25:38;5.10;99.90
17671;DHT22;8954;48.694;8.940;2023-02-01T17:28:04;5.20;99.90
17671;DHT22;8954;48.694;8.940;2023-02-01T17:30:30;5.00;99.90
17671;DHT22;8954;48.694;8.940;2023-02-01T17:32:56;5.00;99.90
17671;DHT22;8954;48.694;8.940;2023-02-01T17:35:24;5.10;99.90
17671;DHT22;8954;48.694;8.940;2023-02-01T17:37:51;5.00;99.90
17671;DHT22;8954;48.694;8.940;2023-02-01T17:40:17;5.00;99.90
17671;DHT22;8954;48.694;8.940;2023-02-01T17:42:43;5.10;99.90
17671;DHT22;8954;48.694;8.940;2023-02-01T17:45:39;5.10;99.90
17671;DHT22;8954;48.694;8.940;2023-02-01T17:48:07;5.30;99.90
17671;DHT22;8954;48.694;8.940;2023-02-01T17:50:35;5.20;99.90
17671;DHT22;8954;48.694;8.940;2023-02-01T17:53:03;5.10;99.90
17671;DHT22;8954;48.694;8.940;2023-02-01T17:55:32;4.90;99.90
17671;DHT22;8954;48.694;8.940;2023-02-01T17:57:59;4.80;99.90
17671;DHT22;8954;48.694;8.940;2023-02-01T18:00:25;4.70;99.90
17671;DHT22;8954;48.694;8.940;2023-02-01T18:02:51;4.50;99.90
17671;DHT22;8954;48.694;8.940;2023-02-01T18:05:21;4.60;99.90
17671;DHT22;8954;48.694;8.940;2023-02-01T18:07:48;4.70;99.90
17671;DHT22;8954;48.694;8.940;2023-02-01T18:10:13;4.70;99.90
17671;DHT22;8954;48.694;8.940;2023-02-01T18:12:39;4.80;99.90
17671;DHT22;8954;48.694;8.940;2023-02-01T18:15:34;4.80;99.90
17671;DHT22;8954;48.694;8.940;2023-02-01T18:18:00;4.90;99.90
17671;DHT22;8954;48.694;8.940;2023-02-01T18:20:26;4.90;99.90
17671;DHT22;8954;48.694;8.940;2023-02-01T18:22:52;5.00;99.90
17671;DHT22;8954;48.694;8.940;2023-02-01T18:25:24;4.90;99.90
17671;DHT22;8954;48.694;8.940;2023-02-01T18:27:51;4.80;99.90
17671;DHT22;8954;48.694;8.940;2023-02-01T18:30:18;4.80;99.90
17671;DHT22;8954;48.694;8.940;2023-02-01T18:32:46;4.70;99.90
17671;DHT22;8954;48.694;8.940;2023-02-01T18:35:23;4.60;99.90
17671;DHT22;8954;48.694;8.940;2023-02-01T18:37:50;4.50;99.90
17671;DHT22;8954;48.694;8.940;2023-02-01T18:40:20;4.60;99.90
17671;DHT22;8954;48.694;8.940;2023-02-01T18:42:47;4.50;99.90
17671;DHT22;8954;48.694;8.940;2023-02-01T18:45:39;4.60;99.90
17671;DHT22;8954;48.694;8.940;2023-02-01T18:48:07;4.70;99.90
17671;DHT22;8954;48.694;8.940;2023-02-01T18:50:35;4.70;99.90
17671;DHT22;8954;48.694;8.940;2023-02-01T18:53:02;4.70;99.90
17671;DHT22;8954;48.694;8.940;2023-02-01T18:55:29;4.80;99.90
17671;DHT22;8954;48.694;8.940;2023-02-01T18:58:00;4.90;99.90
17671;DHT22;8954;48.694;8.940;2023-02-01T19:00:30;5.10;99.90
17671;DHT22;8954;48.694;8.940;2023-02-01T19:02:55;5.10;99.90
17671;DHT22;8954;48.694;8.940;2023-02-01T19:05:21;5.10;99.90
17671;DHT22;8954;48.694;8.940;2023-02-01T19:07:46;5.10;99.90
17671;DHT22;8954;48.694;8.940;2023-02-01T19:10:19;5.10;99.90
17671;DHT22;8954;48.694;8.940;2023-02-01T19:12:47;5.00;99.90
17671;DHT22;8954;48.694;8.940;2023-02-01T19:15:13;5.10;99.90
17671;DHT22;8954;48.694;8.940;2023-02-01T19:17:41;5.20;99.90
17671;DHT22;8954;48.694;8.940;2023-02-01T19:20:08;5.20;99.90
17671;DHT22;8954;48.694;8.940;2023-02-01T19:22:35;5.20;99.90
17671;DHT22;8954;48.694;8.940;2023-02-01T19:25:00;5.20;99.90
17671;DHT22;8954;48.694;8.940;2023-02-01T19:27:26;5.20;99.90
17671;DHT22;8954;48.694;8.940;2023-02-01T19:29:52;5.30;99.90
17671;DHT22;8954;48.694;8.940;2023-02-01T19:32:18;5.40;99.90
17671;DHT22;8954;48.694;8.940;2023-02-01T19:34:43;5.40;99.90
17671;DHT22;8954;48.694;8.940;2023-02-01T19:37:09;5.30;99.90
17671;DHT22;8954;48.694;8.940;2023-02-01T19:39:36;5.30;99.90
17671;DHT22;8954;48.694;8.940;2023-02-01T19:42:08;5.30;99.90
17671;DHT22;8954;48.694;8.940;2023-02-01T19:44:34;5.40;99.90
17671;DHT22;8954;48.694;8.940;2023-02-01T19:47:00;5.30;99.90
17671;DHT22;8954;48.694;8.940;2023-02-01T19:49:26;5.30;99.90
17671;DHT22;8954;48.694;8.940;2023-02-01T19:51:51;5.20;99.90
17671;DHT22;8954;48.694;8.940;2023-02-01T19:54:17;5.20;99.90
17671;DHT22;8954;48.694;8.940;2023-02-01T19:56:45;5.10;99.90
17671;DHT22;8954;48.694;8.940;2023-02-01T19:59:16;5.20;99.90
17671;DHT22;8954;48.694;8.940;2023-02-01T20:01:41;5.30;99.90
17671;DHT22;8954;48.694;8.940;2023-02-01T20:04:09;5.20;99.90
17671;DHT22;8954;48.694;8.940;2023-02-01T20:06:42;5.30;99.90
17671;DHT22;8954;48.694;8.940;2023-02-01T20:09:17;5.30;99.90
17671;DHT22;8954;48.694;8.940;2023-02-01T20:11:43;5.30;99.90
17671;DHT22;8954;48.694;8.940;2023-02-01T20:14:09;5.20;99.90
17671;DHT22;8954;48.694;8.940;2023-02-01T20:16:35;5.20;99.90
17671;DHT22;8954;48.694;8.940;2023-02-01T20:19:00;5.30;99.90
17671;DHT22;8954;48.694;8.940;2023-02-01T20:21:26;5.20;99.90
17671;DHT22;8954;48.694;8.940;2023-02-01T20:23:51;5.30;99.90
17671;DHT22;8954;48.694;8.940;2023-02-01T20:26:17;5.20;99.90
17671;DHT22;8954;48.694;8.940;2023-02-01T20:28:48;5.20;99.90
17671;DHT22;8954;48.694;8.940;2023-02-01T20:31:14;5.30;99.90
17671;DHT22;8954;48.694;8.940;2023-02-01T20:33:40;5.30;99.90
17671;DHT22;8954;48.694;8.940;2023-02-01T20:36:05;5.40;99.90
17671;DHT22;8954;48.694;8.940;2023-02-01T20:38:31;5.30;99.90
17671;DHT22;8954;48.694;8.940;2023-02-01T20:41:02;5.30;99.90
17671;DHT22;8954;48.694;8.940;2023-02-01T20:43:28;5.30;99.90
17671;DHT22;8954;48.694;8.940;2023-02-01T20:45:53;5.30;99.90
17671;DHT22;8954;48.694;8.940;2023-02-01T20:48:19;5.30;99.90
17671;DHT22;8954;48.694;8.940;2023-02-01T20:50:45;5.30;99.90
17671;DHT22;8954;48.694;8.940;2023-02-01T20:53:10;5.30;99.90
17671;DHT22;8954;48.694;8.940;2023-02-01T20:55:36;5.30;99.90
17671;DHT22;8954;48.694;8.940;2023-02-01T20:58:01;5.40;99.90
17671;DHT22;8954;48.694;8.940;2023-02-01T21:00:27;5.50;99.90
17671;DHT22;8954;48.694;8.940;2023-02-01T21:02:52;5.50;99.90
17671;DHT22;8954;48.694;8.940;2023-02-01T21:05:18;5.60;99.90
17671;DHT22;8954;48.694;8.940;2023-02-01T21:07:44;5.50;99.90
17671;DHT22;8954;48.694;8.940;2023-02-01T21:10:10;5.50;99.90
17671;DHT22;8954;48.694;8.940;2023-02-01T21:12:36;5.50;99.90
17671;DHT22;8954;48.694;8.940;2023-02-01T21:15:03;5.50;99.90
17671;DHT22;8954;48.694;8.940;2023-02-01T21:17:30;5.50;99.90
17671;DHT22;8954;48.694;8.940;2023-02-01T21:19:57;5.50;99.90
17671;DHT22;8954;48.694;8.940;2023-02-01T21:22:22;5.60;99.90
17671;DHT22;8954;48.694;8.940;2023-02-01T21:24:48;5.60;99.90
17671;DHT22;8954;48.694;8.940;2023-02-01T21:27:14;5.60;99.90
17671;DHT22;8954;48.694;8.940;2023-02-01T21:29:40;5.50;99.90
17671;DHT22;8954;48.694;8.940;2023-02-01T21:32:07;5.50;99.90
17671;DHT22;8954;48.694;8.940;2023-02-01T21:34:33;5.50;99.90
17671;DHT22;8954;48.694;8.940;2023-02-01T21:36:59;5.50;99.90
17671;DHT22;8954;48.694;8.940;2023-02-01T21:39:25;5.50;99.90
17671;DHT22;8954;48.694;8.940;2023-02-01T21:41:53;5.60;99.90
17671;DHT22;8954;48.694;8.940;2023-02-01T21:44:57;5.60;99.90
17671;DHT22;8954;48.694;8.940;2023-02-01T21:47:24;5.50;99.90
17671;DHT22;8954;48.694;8.940;2023-02-01T21:49:49;5.50;99.90
17671;DHT22;8954;48.694;8.940;2023-02-01T21:52:15;5.50;99.90
17671;DHT22;8954;48.694;8.940;2023-02-01T21:54:42;5.50;99.90
17671;DHT22;8954;48.694;8.940;2023-02-01T21:57:08;5.50;99.90
17671;DHT22;8954;48.694;8.940;2023-02-01T21:59:40;5.60;99.90
17671;DHT22;8954;48.694;8.940;2023-02-01T22:02:13;5.50;99.90
17671;DHT22;8954;48.694;8.940;2023-02-01T22:04:40;5.40;99.90
17671;DHT22;8954;48.694;8.940;2023-02-01T22:07:06;5.50;99.90
17671;DHT22;8954;48.694;8.940;2023-02-01T22:09:32;5.50;99.90
17671;DHT22;8954;48.694;8.940;2023-02-01T22:11:58;5.60;99.90
17671;DHT22;8954;48.694;8.940;2023-02-01T22:14:23;5.60;99.90
17671;DHT22;8954;48.694;8.940;2023-02-01T22:16:49;5.50;99.90
17671;DHT22;8954;48.694;8.940;2023-02-01T22:19:15;5.50;99.90
17671;DHT22;8954;48.694;8.940;2023-02-01T22:21:42;5.50;99.90
17671;DHT22;8954;48.694;8.940;2023-02-01T22:24:11;5.40;99.90
17671;DHT22;8954;48.694;8.940;2023-02-01T22:26:37;5.50;99.90
17671;DHT22;8954;48.694;8.940;2023-02-01T22:29:03;5.40;99.90
17671;DHT22;8954;48.694;8.940;2023-02-01T22:31:28;5.40;99.90
17671;DHT22;8954;48.694;8.940;2023-02-01T22:33:54;5.40;99.90
17671;DHT22;8954;48.694;8.940;2023-02-01T22:36:21;5.30;99.90
17671;DHT22;8954;48.694;8.940;2023-02-01T22:38:49;5.30;99.90
17671;DHT22;8954;48.694;8.940;2023-02-01T22:41:16;5.40;99.90
17671;DHT22;8954;48.694;8.940;2023-02-01T22:43:42;5.30;99.90
17671;DHT22;8954;48.694;8.940;2023-02-01T22:46:13;5.30;99.90
17671;DHT22;8954;48.694;8.940;2023-02-01T22:48:40;5.30;99.90
17671;DHT22;8954;48.694;8.940;2023-02-01T22:51:10;5.20;99.90
17671;DHT22;8954;48.694;8.940;2023-02-01T22:53:37;5.20;99.90
17671;DHT22;8954;48.694;8.940;2023-02-01T22:56:04;5.20;99.90
17671;DHT22;8954;48.694;8.940;2023-02-01T22:58:31;5.10;99.90
17671;DHT22;8954;48.694;8.940;2023-02-01T23:01:09;5.20;99.90
17671;DHT22;8954;48.694;8.940;2023-02-01T23:03:36;5.20;99.90
17671;DHT22;8954;48.694;8.940;2023-02-01T23:06:03;5.20;99.90
17671;DHT22;8954;48.694;8.940;2023-02-01T23:08:28;5.10;99.90
17671;DHT22;8954;48.694;8.940;2023-02-01T23:11:03;5.20;99.90
17671;DHT22;8954;48.694;8.940;2023-02-01T23:13:30;5.30;99.90
17671;DHT22;8954;48.694;8.940;2023-02-01T23:15:56;5.30;99.90
17671;DHT22;8954;48.694;8.940;2023-02-01T23:18:21;5.30;99.90
17671;DHT22;8954;48.694;8.940;2023-02-01T23:20:47;5.20;99.90
17671;DHT22;8954;48.694;8.940;2023-02-01T23:23:12;5.20;99.90
17671;DHT22;8954;48.694;8.940;2023-02-01T23:25:38;5.20;99.90
17671;DHT22;8954;48.694;8.940;2023-02-01T23:28:03;5.30;99.90
17671;DHT22;8954;48.694;8.940;2023-02-01T23:30:29;5.20;99.90
17671;DHT22;8954;48.694;8.940;2023-02-01T23:32:55;5.20;99.90
17671;DHT22;8954;48.694;8.940;2023-02-01T23:35:20;5.10;99.90
17671;DHT22;8954;48.694;8.940;2023-02-01T23:37:46;5.10;99.90
17671;DHT22;8954;48.694;8.940;2023-02-01T23:40:12;4.90;99.90
17671;DHT22;8954;48.694;8.940;2023-02-01T23:42:37;4.90;99.90
17671;DHT22;8954;48.694;8.940;2023-02-01T23:45:04;4.90;99.90
17671;DHT22;8954;48.694;8.940;2023-02-01T23:47:29;4.90;99.90
17671;DHT22;8954;48.694;8.940;2023-02-01T23:49:55;4.80;99.90
17671;DHT22;8954;48.694;8.940;2023-02-01T23:52:21;4.80;99.90
17671;DHT22;8954;48.694;8.940;2023-02-01T23:54:46;4.70;99.90
17671;DHT22;8954;48.694;8.940;2023-02-01T23:57:12;4.80;99.90
17671;DHT22;8954;48.694;8.940;2023-02-01T23:59:37;4.80;99.90
